Time;durP1;ratioP1;P1;durP2;ratioP2;P2;SDS_P1;SDS_P2;PMS_P1;PMS_P2;Temp;Humidity;BMP_temperature;BMP_pressure;BME280_temperature;BME280_humidity;BME280_pressure;Samples;Min_cycle;Max_cycle;Signal;HPM_P1;HPM_P2
2022/01/10 00:02:09;;;;;;;33.35;13.68;;;;;;;-0.36;100.00;100827.09;5026923;28;20454;-68
2022/01/10 00:04:34;;;;;;;47.10;13.90;;;;;;;-0.41;100.00;100827.34;5027997;28;20108;-68
2022/01/10 00:07:03;;;;;;;37.88;13.82;;;;;;;-0.44;100.00;100831.81;5026292;28;20056;-68
2022/01/10 00:09:29;;;;;;;34.97;14.13;;;;;;;-0.47;100.00;100837.06;5015674;28;20398;-68
2022/01/10 00:11:55;;;;;;;37.35;13.95;;;;;;;-0.48;100.00;100835.44;5028075;28;20104;-68
2022/01/10 00:14:20;;;;;;;34.13;13.75;;;;;;;-0.50;100.00;100842.34;5028002;28;20171;-69
2022/01/10 00:16:46;;;;;;;40.15;13.75;;;;;;;-0.52;100.00;100851.78;5024962;23;20512;-79
2022/01/10 00:19:11;;;;;;;37.03;13.80;;;;;;;-0.55;100.00;100850.22;5017982;28;20029;-79
2022/01/10 00:21:37;;;;;;;33.50;13.88;;;;;;;-0.56;100.00;100857.97;5018040;28;20045;-78
2022/01/10 00:24:02;;;;;;;42.65;14.27;;;;;;;-0.60;100.00;100842.81;5001219;28;20590;-79
2022/01/10 00:26:28;;;;;;;32.95;13.38;;;;;;;-0.60;100.00;100853.03;5001350;28;20045;-78
2022/01/10 00:28:53;;;;;;;40.45;15.85;;;;;;;-0.59;100.00;100856.38;4995863;28;20069;-77
2022/01/10 00:31:19;;;;;;;38.72;14.75;;;;;;;-0.56;100.00;100858.78;5005515;28;20030;-78
2022/01/10 00:33:44;;;;;;;41.47;14.23;;;;;;;-0.54;100.00;100859.50;5015620;28;20038;-78
2022/01/10 00:36:11;;;;;;;40.65;15.00;;;;;;;-0.42;100.00;100868.22;5012682;28;20037;-77
2022/01/10 00:38:36;;;;;;;46.42;14.43;;;;;;;-0.47;100.00;100867.63;4998276;28;20025;-79
2022/01/10 00:41:02;;;;;;;38.30;14.55;;;;;;;-0.50;100.00;100878.00;5023131;28;20034;-78
2022/01/10 00:43:33;;;;;;;31.88;14.13;;;;;;;-0.55;100.00;100879.97;5016268;28;20057;-77
2022/01/10 00:46:00;;;;;;;42.67;15.02;;;;;;;-0.56;100.00;100879.16;4999885;28;20041;-78
2022/01/10 00:48:27;;;;;;;39.03;13.93;;;;;;;-0.61;100.00;100886.22;5004900;28;20029;-80
2022/01/10 00:50:53;;;;;;;35.92;14.35;;;;;;;-0.65;100.00;100887.28;5002392;28;20033;-78
2022/01/10 00:53:18;;;;;;;35.33;14.35;;;;;;;-0.66;100.00;100896.66;5017883;28;20554;-77
2022/01/10 00:55:44;;;;;;;41.45;13.60;;;;;;;-0.66;100.00;100896.66;5000974;28;20056;-79
2022/01/10 00:58:10;;;;;;;38.50;14.20;;;;;;;-0.64;100.00;100905.03;4999579;28;20022;-78
2022/01/10 01:00:35;;;;;;;37.92;13.80;;;;;;;-0.63;100.00;100901.56;4999587;28;20038;-78
2022/01/10 01:03:01;;;;;;;39.28;14.93;;;;;;;-0.63;100.00;100900.75;5018641;28;20026;-78
2022/01/10 01:05:27;;;;;;;40.88;15.77;;;;;;;-0.65;100.00;100908.47;5006441;28;20431;-77
2022/01/10 01:07:52;;;;;;;37.33;13.75;;;;;;;-0.67;100.00;100907.72;4996107;28;20111;-79
2022/01/10 01:15:45;;;;;;;42.78;14.98;;;;;;;-0.72;100.00;100924.16;5011907;28;20038;-79
2022/01/10 01:18:19;;;;;;;39.60;15.38;;;;;;;-0.68;100.00;100931.56;5000321;28;20059;-78
2022/01/10 01:24:00;;;;;;;45.40;15.52;;;;;;;-0.71;100.00;100938.56;5013319;28;20408;-79
2022/01/10 01:26:14;;;;;;;43.72;16.73;;;;;;;-0.67;100.00;100945.94;5025736;28;20052;-79
2022/01/10 01:28:40;;;;;;;50.33;16.38;;;;;;;-0.60;100.00;100942.19;5016552;28;20069;-79
2022/01/10 01:31:05;;;;;;;44.72;15.55;;;;;;;-0.61;100.00;100958.34;4998366;28;20018;-78
2022/01/10 01:33:31;;;;;;;40.90;15.88;;;;;;;-0.60;100.00;100965.09;5014880;28;20373;-79
2022/01/10 01:35:57;;;;;;;45.25;16.65;;;;;;;-0.59;100.00;100966.72;5015014;28;20578;-80
2022/01/10 01:38:24;;;;;;;46.13;15.55;;;;;;;-0.62;100.00;100972.00;5012363;28;20022;-79
2022/01/10 01:40:57;;;;;;;52.13;16.63;;;;;;;-0.62;100.00;100976.28;4995629;28;20696;-77
2022/01/10 01:43:22;;;;;;;45.65;16.83;;;;;;;-0.66;100.00;100978.16;5017925;28;20144;-77
2022/01/10 01:45:49;;;;;;;46.15;16.63;;;;;;;-0.59;100.00;100976.09;5023716;28;20052;-77
2022/01/10 01:48:15;;;;;;;49.28;16.52;;;;;;;-0.61;100.00;100994.00;5002822;28;20391;-79
2022/01/10 01:50:41;;;;;;;46.88;17.00;;;;;;;-0.55;100.00;100981.88;4998251;28;20034;-79
2022/01/10 01:53:08;;;;;;;41.47;17.17;;;;;;;-0.53;100.00;100992.78;4987308;28;20121;-79
2022/01/10 01:55:34;;;;;;;40.10;16.25;;;;;;;-0.49;100.00;101000.22;5015373;28;20029;-79
2022/01/10 01:58:01;;;;;;;45.17;16.70;;;;;;;-0.49;100.00;100996.81;5017431;28;20030;-78
2022/01/10 02:00:26;;;;;;;42.97;16.85;;;;;;;-0.53;100.00;100992.78;5018918;28;20426;-79
2022/01/10 02:02:54;;;;;;;40.47;15.75;;;;;;;-0.54;100.00;100996.25;5000022;28;20030;-78
2022/01/10 02:05:22;;;;;;;44.95;17.13;;;;;;;-0.54;100.00;101003.91;5017762;28;20133;-78
2022/01/10 02:07:48;;;;;;;47.47;15.82;;;;;;;-0.60;100.00;101010.97;5001431;28;20030;-79
2022/01/10 02:10:15;;;;;;;38.78;13.93;;;;;;;-0.68;100.00;101014.78;5022105;28;20064;-78
2022/01/10 02:12:41;;;;;;;37.55;15.13;;;;;;;-0.75;100.00;101016.00;5013272;28;20050;-79
2022/01/10 02:15:50;;;;;;;29.33;13.30;;;;;;;-0.82;100.00;101025.69;5016231;28;20026;-79
2022/01/10 02:18:20;;;;;;;35.47;14.38;;;;;;;-0.87;100.00;101020.81;5002308;28;20316;-79
2022/01/10 02:20:49;;;;;;;35.45;15.13;;;;;;;-0.91;100.00;101031.22;5005945;28;20025;-78
2022/01/10 02:23:17;;;;;;;46.13;15.45;;;;;;;-0.95;100.00;101027.19;5025106;28;20037;-78
2022/01/10 02:25:57;;;;;;;38.03;15.20;;;;;;;-1.00;100.00;101027.41;5010902;28;20053;-79
2022/01/10 02:28:29;;;;;;;35.47;14.95;;;;;;;-1.05;100.00;101026.84;5001883;28;20523;-78
2022/01/10 02:30:58;;;;;;;44.63;15.27;;;;;;;-1.08;100.00;101035.41;5023927;28;20042;-79
2022/01/10 02:33:29;;;;;;;37.75;15.05;;;;;;;-1.12;100.00;101035.66;5009677;28;20034;-78
2022/01/10 02:36:07;;;;;;;36.03;14.75;;;;;;;-1.14;100.00;101042.56;5012473;28;20053;-78
2022/01/10 02:38:33;;;;;;;36.15;15.73;;;;;;;-1.18;100.00;101044.41;5021159;28;20098;-77
2022/01/10 02:40:59;;;;;;;36.88;15.20;;;;;;;-1.21;100.00;101063.19;5015731;28;20104;-78
2022/01/10 02:43:26;;;;;;;37.38;15.82;;;;;;;-1.23;100.00;101062.44;5034824;28;20022;-78
2022/01/10 02:45:52;;;;;;;37.70;14.73;;;;;;;-1.26;100.00;101065.16;5026987;28;20030;-79
2022/01/10 02:48:17;;;;;;;33.38;14.60;;;;;;;-1.28;100.00;101081.38;5010395;28;20432;-78
2022/01/10 02:50:43;;;;;;;41.78;15.13;;;;;;;-1.30;100.00;101085.72;4993826;28;20037;-78
2022/01/10 02:53:09;;;;;;;46.10;15.98;;;;;;;-1.33;100.00;101088.41;5009842;28;20527;-79
2022/01/10 02:55:36;;;;;;;47.05;15.32;;;;;;;-1.31;100.00;101079.00;5016870;28;20033;-78
2022/01/10 02:58:01;;;;;;;35.83;15.20;;;;;;;-1.33;100.00;101090.97;4992509;28;20550;-78
2022/01/10 03:00:27;;;;;;;40.30;16.20;;;;;;;-1.37;100.00;101091.09;4992385;28;20473;-78
2022/01/10 03:02:55;;;;;;;42.03;15.30;;;;;;;-1.39;100.00;101103.06;4991107;28;20022;-79
2022/01/10 03:05:24;;;;;;;42.58;14.38;;;;;;;-1.44;100.00;101115.16;5007158;28;20064;-79
2022/01/10 03:07:52;;;;;;;32.30;13.80;;;;;;;-1.48;100.00;101108.56;4991973;28;20033;-79
2022/01/10 03:10:18;;;;;;;33.53;14.50;;;;;;;-1.49;100.00;101114.53;5004391;28;20065;-79
2022/01/10 03:12:44;;;;;;;37.03;14.88;;;;;;;-1.51;100.00;101116.34;5007295;28;20677;-78
2022/01/10 03:15:11;;;;;;;34.72;13.98;;;;;;;-1.53;100.00;101118.13;5018072;28;20672;-79
2022/01/10 03:17:38;;;;;;;37.05;15.85;;;;;;;-1.54;100.00;101118.19;5005031;28;20042;-79
2022/01/10 03:20:06;;;;;;;35.55;14.20;;;;;;;-1.58;100.00;101125.16;4993697;28;20041;-79
2022/01/10 03:22:32;;;;;;;37.58;14.05;;;;;;;-1.60;100.00;101129.47;5008120;28;20033;-78
2022/01/10 03:24:58;;;;;;;32.88;13.80;;;;;;;-1.61;100.00;101132.94;5016822;28;20137;-78
2022/01/10 03:27:25;;;;;;;33.33;13.32;;;;;;;-1.63;100.00;101130.44;4994315;28;20240;-78
2022/01/10 03:29:53;;;;;;;37.38;15.02;;;;;;;-1.62;100.00;101141.44;4997062;28;20091;-79
2022/01/10 03:32:19;;;;;;;37.08;14.02;;;;;;;-1.64;100.00;101143.22;5013421;28;20403;-78
2022/01/10 03:34:45;;;;;;;34.80;13.35;;;;;;;-1.66;100.00;101145.84;4992938;28;20515;-79
2022/01/10 03:37:11;;;;;;;30.27;13.25;;;;;;;-1.67;100.00;101151.81;5011047;28;20033;-78
2022/01/10 03:39:38;;;;;;;39.78;15.45;;;;;;;-1.68;100.00;101155.25;4978676;28;20084;-78
2022/01/10 03:42:06;;;;;;;36.58;14.23;;;;;;;-1.70;100.00;101156.22;5010445;28;20026;-79
2022/01/10 03:44:32;;;;;;;29.30;14.02;;;;;;;-1.72;100.00;101163.09;5006652;28;20040;-78
2022/01/10 03:46:57;;;;;;;46.33;13.68;;;;;;;-1.76;100.00;101165.75;5017095;28;20035;-78
2022/01/10 03:49:25;;;;;;;29.67;13.77;;;;;;;-1.80;100.00;101165.97;5013655;28;20033;-79
2022/01/10 03:51:52;;;;;;;40.78;13.70;;;;;;;-1.84;100.00;101169.56;5010204;28;20029;-79
2022/01/10 03:54:18;;;;;;;34.38;13.48;;;;;;;-1.88;100.00;101181.56;5013640;28;20385;-78
2022/01/10 03:56:44;;;;;;;36.65;12.38;;;;;;;-1.90;100.00;101185.06;5006273;28;20034;-79
2022/01/10 03:59:11;;;;;;;35.55;12.95;;;;;;;-1.91;100.00;101188.50;5009959;28;20037;-78
2022/01/10 04:01:39;;;;;;;38.65;13.20;;;;;;;-1.93;100.00;101201.28;4992531;28;20041;-78
2022/01/10 04:04:06;;;;;;;31.52;13.27;;;;;;;-1.92;100.00;101197.00;4996093;28;20381;-78
2022/01/10 04:06:31;;;;;;;37.50;13.57;;;;;;;-1.94;100.00;101206.41;5006876;28;20107;-78
2022/01/10 04:08:57;;;;;;;34.00;13.32;;;;;;;-1.97;100.00;101213.28;4998271;28;20049;-79
2022/01/10 04:11:23;;;;;;;32.40;13.30;;;;;;;-1.97;100.00;101218.38;4998184;28;20124;-78
2022/01/10 04:13:49;;;;;;;34.70;13.90;;;;;;;-1.88;100.00;101218.88;5009413;28;20041;-79
2022/01/10 04:16:15;;;;;;;33.97;13.65;;;;;;;-1.92;100.00;101220.72;4992531;28;20038;-79
2022/01/10 04:18:41;;;;;;;34.88;14.13;;;;;;;-1.96;100.00;101237.81;4999188;28;20112;-78
2022/01/10 04:21:07;;;;;;;28.88;13.35;;;;;;;-1.98;100.00;101234.53;5012283;28;20100;-78
2022/01/10 04:23:33;;;;;;;41.72;15.25;;;;;;;-2.00;100.00;101245.63;5002989;28;20045;-78
2022/01/10 04:25:58;;;;;;;33.10;13.43;;;;;;;-2.02;100.00;101237.25;4995887;28;20038;-78
2022/01/10 04:28:24;;;;;;;35.72;13.98;;;;;;;-2.04;100.00;101241.56;5005150;28;20034;-79
2022/01/10 04:30:50;;;;;;;35.85;13.27;;;;;;;-2.09;100.00;101249.41;4996852;28;20334;-78
2022/01/10 04:33:18;;;;;;;34.40;13.73;;;;;;;-2.10;100.00;101257.09;5006068;28;20044;-79
2022/01/10 04:35:46;;;;;;;31.90;13.40;;;;;;;-2.12;100.00;101259.69;5010077;28;20023;-78
2022/01/10 04:38:12;;;;;;;33.15;11.70;;;;;;;-2.13;100.00;101265.63;4994526;28;20044;-79
2022/01/10 04:40:38;;;;;;;34.63;12.90;;;;;;;-2.16;100.00;101271.69;5016581;28;20728;-78
2022/01/10 04:43:04;;;;;;;37.78;12.90;;;;;;;-2.16;100.00;101270.88;5005539;28;20050;-78
2022/01/10 04:45:29;;;;;;;35.38;13.35;;;;;;;-2.17;100.00;101280.22;4995962;28;20029;-78
2022/01/10 04:47:56;;;;;;;32.20;13.43;;;;;;;-2.18;100.00;101287.91;5010717;28;20065;-79
2022/01/10 04:51:01;;;;;;;31.80;12.23;;;;;;;-2.20;100.00;101297.28;5011825;28;20030;-78
2022/01/10 04:53:19;;;;;;;26.55;12.07;;;;;;;-2.22;100.00;101304.97;4991541;28;20176;-79
2022/01/10 04:55:44;;;;;;;41.45;13.77;;;;;;;-2.23;100.00;101305.84;5009951;28;20342;-79
2022/01/10 04:58:10;;;;;;;34.17;14.13;;;;;;;-2.24;100.00;101313.53;5007192;28;20034;-78
2022/01/10 05:00:35;;;;;;;35.13;13.63;;;;;;;-2.26;100.00;101311.06;5009463;28;20158;-77
2022/01/10 05:03:01;;;;;;;29.10;13.05;;;;;;;-2.30;100.00;101324.75;4993943;28;20034;-78
2022/01/10 05:05:27;;;;;;;31.60;13.23;;;;;;;-2.34;100.00;101323.22;5011310;28;20045;-78
2022/01/10 05:07:53;;;;;;;33.53;13.32;;;;;;;-2.33;100.00;101339.31;4994260;28;20033;-79
2022/01/10 05:10:20;;;;;;;31.75;14.05;;;;;;;-2.35;100.00;101344.47;4992639;28;20033;-78
2022/01/10 05:12:46;;;;;;;34.55;13.93;;;;;;;-2.35;100.00;101341.91;4995662;28;20037;-77
2022/01/10 05:15:11;;;;;;;38.55;13.75;;;;;;;-2.34;100.00;101353.72;4993631;28;20075;-78
2022/01/10 05:17:37;;;;;;;33.22;14.02;;;;;;;-2.32;100.00;101353.66;5011765;28;20100;-78
2022/01/10 05:20:05;;;;;;;32.33;13.35;;;;;;;-2.31;100.00;101361.22;4988291;28;20030;-78
2022/01/10 05:22:30;;;;;;;36.80;14.50;;;;;;;-2.27;100.00;101369.56;4995153;28;20042;-78
2022/01/10 05:24:56;;;;;;;40.97;15.85;;;;;;;-2.21;100.00;101369.31;5012215;28;20157;-78
2022/01/10 05:27:22;;;;;;;36.10;13.90;;;;;;;-2.21;100.00;101374.41;5011192;28;20100;-79
2022/01/10 05:29:48;;;;;;;34.88;15.10;;;;;;;-2.23;100.00;101377.00;5000661;28;20524;-78
2022/01/10 05:32:14;;;;;;;40.15;14.77;;;;;;;-2.20;100.00;101376.88;4992878;28;20500;-79
2022/01/10 05:35:03;;;;;;;44.10;15.57;;;;;;;-2.19;100.00;101383.59;5002969;28;20044;-77
2022/01/10 05:37:29;;;;;;;43.20;15.75;;;;;;;-2.08;100.00;101384.91;5009470;28;20038;-78
2022/01/10 05:39:54;;;;;;;41.47;14.68;;;;;;;-2.10;100.00;101395.16;4999485;28;20033;-78
2022/01/10 05:42:20;;;;;;;40.78;15.52;;;;;;;-2.09;100.00;101398.50;4990093;28;20033;-79
2022/01/10 05:44:47;;;;;;;46.90;15.35;;;;;;;-2.07;100.00;101414.53;4993009;28;20528;-78
2022/01/10 05:47:13;;;;;;;35.65;14.35;;;;;;;-2.07;100.00;101404.34;5009444;28;20044;-78
2022/01/10 05:49:46;;;;;;;40.63;16.00;;;;;;;-2.06;100.00;101421.28;4997019;28;20402;-79
2022/01/10 05:52:15;;;;;;;43.78;16.02;;;;;;;-2.04;100.00;101427.13;5007408;28;20022;-78
2022/01/10 05:54:42;;;;;;;33.45;14.50;;;;;;;-2.05;100.00;101423.75;5013483;28;20040;-78
2022/01/10 05:57:09;;;;;;;36.83;16.58;;;;;;;-2.04;100.00;101430.47;5015371;28;20614;-78
2022/01/10 05:59:39;;;;;;;43.97;16.77;;;;;;;-2.02;100.00;101440.59;4998757;28;20102;-77
2022/01/10 06:02:05;;;;;;;42.92;16.17;;;;;;;-2.02;100.00;101448.22;4998661;28;20551;-78
2022/01/10 06:04:32;;;;;;;36.75;15.93;;;;;;;-2.01;100.00;101445.63;5012807;28;20496;-77
2022/01/10 06:07:04;;;;;;;35.60;15.15;;;;;;;-2.00;100.00;101443.91;5011776;28;20028;-78
2022/01/10 06:09:30;;;;;;;41.95;15.35;;;;;;;-2.00;100.00;101451.53;5009939;28;20034;-79
2022/01/10 06:11:56;;;;;;;33.03;13.73;;;;;;;-2.01;100.00;101460.06;4998962;28;20025;-78
2022/01/10 06:14:22;;;;;;;37.17;14.95;;;;;;;-2.02;100.00;101461.75;5009796;28;20038;-78
2022/01/10 06:16:48;;;;;;;32.67;14.35;;;;;;;-2.00;100.00;101469.31;5009207;28;20079;-78
2022/01/10 06:19:14;;;;;;;36.53;14.35;;;;;;;-2.01;100.00;101471.03;4999661;28;20041;-78
2022/01/10 06:21:40;;;;;;;43.28;14.68;;;;;;;-2.01;100.00;101483.75;5015755;28;20100;-78
2022/01/10 06:24:06;;;;;;;39.22;15.50;;;;;;;-2.01;100.00;101482.94;4981020;28;20034;-77
2022/01/10 06:26:32;;;;;;;34.85;14.80;;;;;;;-2.02;100.00;101484.63;5018206;28;20041;-78
2022/01/10 06:28:58;;;;;;;48.22;15.15;;;;;;;-2.02;100.00;101483.81;4983319;28;21319;-78
2022/01/10 06:31:24;;;;;;;29.67;15.18;;;;;;;-1.98;100.00;101492.97;5014808;28;20049;-79
2022/01/10 06:34:00;;;;;;;33.17;14.40;;;;;;;-1.99;100.00;101493.88;5004402;28;20029;-77
2022/01/10 06:36:26;;;;;;;34.15;14.48;;;;;;;-2.00;100.00;101499.81;5001667;28;20038;-78
2022/01/10 06:38:53;;;;;;;34.92;14.25;;;;;;;-2.01;100.00;101505.81;4995885;28;20041;-77
2022/01/10 06:41:19;;;;;;;37.60;15.65;;;;;;;-2.01;100.00;101509.19;5013823;28;20394;-79
2022/01/10 06:43:46;;;;;;;39.35;15.20;;;;;;;-2.00;100.00;101520.16;5016140;28;20076;-78
2022/01/10 06:46:12;;;;;;;32.58;13.70;;;;;;;-2.00;100.00;101522.69;5017854;28;20022;-79
2022/01/10 06:48:39;;;;;;;36.83;14.70;;;;;;;-2.02;100.00;101534.66;5016208;28;20050;-77
2022/01/10 06:51:05;;;;;;;41.50;14.38;;;;;;;-1.95;100.00;101541.16;4996360;28;20038;-79
2022/01/10 06:53:32;;;;;;;32.67;14.18;;;;;;;-2.00;100.00;101535.41;5017172;28;20026;-77
2022/01/10 06:55:59;;;;;;;40.78;14.30;;;;;;;-2.01;100.00;101538.84;5009315;28;20069;-78
2022/01/10 06:58:25;;;;;;;38.45;13.95;;;;;;;-2.03;100.00;101545.72;5018238;28;20030;-78
2022/01/10 07:00:50;;;;;;;36.92;14.05;;;;;;;-2.04;100.00;101555.03;5010721;28;20030;-79
2022/01/10 07:03:16;;;;;;;44.67;13.55;;;;;;;-2.05;100.00;101557.66;4999895;28;20411;-78
2022/01/10 07:05:52;;;;;;;32.22;13.85;;;;;;;-2.05;100.00;101552.56;4983741;28;20034;-76
2022/01/10 07:08:19;;;;;;;41.67;14.65;;;;;;;-2.07;100.00;101560.25;4994233;28;20507;-78
2022/01/10 07:10:52;;;;;;;47.42;15.00;;;;;;;-2.08;100.00;101575.53;5013119;28;20030;-78
2022/01/10 07:13:19;;;;;;;46.30;15.32;;;;;;;-2.09;100.00;101579.81;5016656;28;20040;-76
2022/01/10 07:15:46;;;;;;;38.63;13.70;;;;;;;-2.16;100.00;101581.72;4997161;28;20041;-77
2022/01/10 07:18:12;;;;;;;34.25;13.50;;;;;;;-2.17;100.00;101592.78;4996728;28;20140;-80
2022/01/10 07:20:42;;;;;;;39.80;14.13;;;;;;;-2.18;100.00;101603.81;5011156;28;20069;-78
2022/01/10 07:23:08;;;;;;;33.30;13.20;;;;;;;-2.19;100.00;101601.34;5003456;28;20045;-78
2022/01/10 07:25:35;;;;;;;38.65;13.80;;;;;;;-2.21;100.00;101608.19;5006242;28;20053;-78
2022/01/10 07:28:00;;;;;;;35.28;14.50;;;;;;;-2.24;100.00;101611.69;4980698;28;20022;-79
2022/01/10 07:30:26;;;;;;;43.67;14.32;;;;;;;-2.24;100.00;101624.38;5012357;28;20127;-80
2022/01/10 07:32:52;;;;;;;33.95;13.90;;;;;;;-2.25;100.00;101625.25;5005021;28;20056;-78
2022/01/10 07:35:18;;;;;;;35.42;14.10;;;;;;;-2.25;100.00;101634.59;5001824;28;20544;-79
2022/01/10 07:37:43;;;;;;;34.85;14.13;;;;;;;-2.30;100.00;101636.47;4980241;28;20028;-78
2022/01/10 07:40:09;;;;;;;39.38;13.88;;;;;;;-2.30;100.00;101644.91;5018863;28;20467;-79
2022/01/10 07:42:35;;;;;;;55.08;21.13;;;;;;;-2.24;100.00;101654.88;5004739;28;20034;-78
2022/01/10 07:45:07;;;;;;;47.53;17.42;;;;;;;-2.24;100.00;101661.66;4999720;28;20030;-78
2022/01/10 07:47:35;;;;;;;46.38;16.25;;;;;;;-2.29;100.00;101674.53;5019900;28;20478;-78
2022/01/10 07:50:00;;;;;;;46.45;14.48;;;;;;;-2.28;100.00;101670.25;4998926;28;20069;-79
2022/01/10 07:52:26;;;;;;;36.22;13.13;;;;;;;-2.32;100.00;101684.78;5018764;28;20030;-80
2022/01/10 07:54:53;;;;;;;38.63;16.13;;;;;;;-2.34;100.00;101686.53;5017037;28;20044;-79
2022/01/10 07:57:19;;;;;;;43.65;15.27;;;;;;;-2.35;100.00;101685.72;5002663;28;21220;-78
2022/01/10 07:59:44;;;;;;;41.53;14.90;;;;;;;-2.35;100.00;101695.88;5009296;28;20278;-80
2022/01/10 08:02:10;;;;;;;32.75;13.35;;;;;;;-2.32;100.00;101704.28;5003764;28;20423;-78
2022/01/10 08:04:36;;;;;;;39.03;14.35;;;;;;;-2.35;100.00;101706.03;5015208;28;20044;-80
2022/01/10 08:07:03;;;;;;;41.38;14.60;;;;;;;-2.40;100.00;101712.16;5001299;28;20299;-79
2022/01/10 08:09:29;;;;;;;39.40;14.10;;;;;;;-2.40;100.00;101723.16;5013159;28;20042;-78
2022/01/10 08:11:59;;;;;;;39.85;14.85;;;;;;;-2.35;100.00;101718.75;4987745;28;20201;-77
2022/01/10 08:14:26;;;;;;;40.83;15.57;;;;;;;-2.37;100.00;101732.41;5014965;28;20034;-78
2022/01/10 08:16:51;;;;;;;37.35;16.00;;;;;;;-2.32;100.00;101734.78;5002586;28;20030;-79
2022/01/10 08:19:17;;;;;;;42.55;16.83;;;;;;;-2.26;100.00;101735.41;4998017;28;20026;-78
2022/01/10 08:21:42;;;;;;;46.85;17.27;;;;;;;-2.24;100.00;101743.81;5015789;28;20034;-77
2022/01/10 08:24:08;;;;;;;48.10;17.52;;;;;;;-2.24;100.00;101753.13;5000737;28;20046;-76
2022/01/10 08:26:34;;;;;;;42.97;17.80;;;;;;;-2.21;100.00;101753.03;5001417;28;20037;-78
2022/01/10 08:28:59;;;;;;;39.13;16.83;;;;;;;-2.23;100.00;101760.72;5019909;28;20034;-79
2022/01/10 08:31:24;;;;;;;45.38;16.65;;;;;;;-2.19;100.00;101761.44;5023256;28;20277;-78
2022/01/10 08:33:50;;;;;;;52.83;17.92;;;;;;;-2.12;100.00;101773.06;4998094;28;20064;-77
2022/01/10 08:36:16;;;;;;;40.95;17.23;;;;;;;-2.12;100.00;101764.63;5018592;28;20399;-78
2022/01/10 08:38:42;;;;;;;45.33;16.55;;;;;;;-2.10;100.00;101773.03;5009840;28;20022;-78
2022/01/10 08:41:07;;;;;;;45.65;21.58;;;;;;;-2.09;100.00;101777.22;5019231;28;20537;-77
2022/01/10 08:43:33;;;;;;;57.92;23.58;;;;;;;-2.06;100.00;101777.13;5000537;28;20053;-79
2022/01/10 08:45:58;;;;;;;67.72;26.75;;;;;;;-2.05;100.00;101773.72;5015409;28;20045;-78
2022/01/10 08:48:24;;;;;;;64.53;28.05;;;;;;;-2.04;100.00;101772.81;5004182;28;20554;-77
2022/01/10 08:50:49;;;;;;;62.55;25.27;;;;;;;-2.02;100.00;101776.97;5000245;28;20030;-79
2022/01/10 08:53:15;;;;;;;68.07;30.70;;;;;;;-2.01;100.00;101785.44;5010070;28;20025;-79
2022/01/10 08:55:40;;;;;;;61.25;26.92;;;;;;;-1.99;100.00;101787.03;5018705;28;20372;-78
2022/01/10 08:58:06;;;;;;;53.25;22.20;;;;;;;-1.96;100.00;101798.81;5002368;28;20038;-77
2022/01/10 09:00:32;;;;;;;50.40;21.27;;;;;;;-1.94;100.00;101798.75;5007535;28;20359;-77
2022/01/10 09:02:57;;;;;;;56.67;20.35;;;;;;;-1.92;100.00;101814.78;5003600;28;20495;-78
2022/01/10 09:05:23;;;;;;;46.90;20.08;;;;;;;-1.91;100.00;101812.22;5014770;28;20037;-78
2022/01/10 09:07:49;;;;;;;46.08;19.25;;;;;;;-1.88;100.00;101808.75;4988256;28;20053;-78
2022/01/10 09:10:14;;;;;;;48.05;20.27;;;;;;;-1.86;100.00;101809.53;5000509;28;20152;-77
2022/01/10 09:12:40;;;;;;;51.10;20.23;;;;;;;-1.83;100.00;101811.94;5016265;28;20034;-79
2022/01/10 09:15:07;;;;;;;62.05;22.10;;;;;;;-1.77;100.00;101819.41;4995041;28;20026;-78
2022/01/10 09:17:33;;;;;;;69.13;25.20;;;;;;;-1.62;100.00;101829.03;5012166;28;20052;-77
2022/01/10 09:19:59;;;;;;;56.40;23.33;;;;;;;-1.50;100.00;101829.50;5018361;28;20038;-78
2022/01/10 09:22:24;;;;;;;68.13;23.42;;;;;;;-1.45;100.00;101836.09;5010173;28;20025;-79
2022/01/10 09:24:50;;;;;;;55.75;21.75;;;;;;;-1.42;100.00;101835.16;5007941;28;20037;-77
2022/01/10 09:27:15;;;;;;;54.75;22.23;;;;;;;-1.42;100.00;101835.97;5000911;28;20045;-79
2022/01/10 09:29:42;;;;;;;57.97;23.23;;;;;;;-1.37;100.00;101851.09;5026667;28;20055;-77
2022/01/10 09:32:08;;;;;;;71.25;27.13;;;;;;;-1.33;100.00;101842.47;5015602;28;20026;-78
2022/01/10 09:34:34;;;;;;;93.22;31.67;;;;;;;-1.13;100.00;101840.94;5011977;28;20042;-78
2022/01/10 09:37:01;;;;;;;112.88;37.10;;;;;;;-1.01;100.00;101850.69;4998569;28;20034;-77
2022/01/10 09:39:27;;;;;;;107.68;34.97;;;;;;;-0.69;100.00;101857.13;5016871;28;20036;-77
2022/01/10 09:41:53;;;;;;;137.40;48.70;;;;;;;-0.35;100.00;101860.94;5015164;28;20056;-78
2022/01/10 09:44:18;;;;;;;105.82;37.25;;;;;;;-0.23;100.00;101860.47;4998138;28;20105;-77
2022/01/10 09:46:48;;;;;;;97.97;34.63;;;;;;;-0.17;100.00;101877.25;4992191;28;20119;-78
2022/01/10 09:49:14;;;;;;;88.50;31.38;;;;;;;-0.06;100.00;101877.66;4991262;28;20065;-77
2022/01/10 09:51:40;;;;;;;59.90;23.20;;;;;;;-0.04;100.00;101880.13;4989396;28;20061;-78
2022/01/10 09:54:05;;;;;;;61.38;23.75;;;;;;;-0.08;100.00;101876.03;4998525;28;20034;-78
2022/01/10 09:56:31;;;;;;;61.60;22.33;;;;;;;0.02;100.00;101885.00;4994091;28;20033;-77
2022/01/10 09:58:58;;;;;;;58.40;22.92;;;;;;;0.23;100.00;101892.66;5008441;28;20037;-77
2022/01/10 10:01:26;;;;;;;63.53;22.00;;;;;;;0.13;100.00;101902.41;5015612;28;20048;-78
2022/01/10 10:03:54;;;;;;;62.80;21.02;;;;;;;0.31;100.00;101900.84;5017494;28;20556;-77
2022/01/10 10:06:20;;;;;;;48.38;19.40;;;;;;;0.26;100.00;101902.75;5004611;28;20037;-78
2022/01/10 10:08:45;;;;;;;46.95;19.48;;;;;;;0.30;100.00;101910.25;5009162;28;20042;-77
2022/01/10 10:11:12;;;;;;;57.28;20.58;;;;;;;0.35;100.00;101913.41;5012987;28;20031;-78
2022/01/10 10:13:52;;;;;;;63.00;21.92;;;;;;;0.38;100.00;101915.03;5021881;28;20030;-79
2022/01/10 10:16:18;;;;;;;53.42;20.08;;;;;;;0.50;100.00;101916.25;4998594;28;20512;-78
2022/01/10 10:18:46;;;;;;;52.60;20.88;;;;;;;0.53;100.00;101918.69;4998950;28;20056;-77
2022/01/10 10:21:13;;;;;;;55.42;19.27;;;;;;;0.46;100.00;101923.19;5000701;28;20034;-78
2022/01/10 10:23:41;;;;;;;53.33;19.23;;;;;;;0.60;100.00;101932.00;5001686;28;20056;-78
2022/01/10 10:26:07;;;;;;;60.40;19.55;;;;;;;0.76;100.00;101928.75;5010059;28;20563;-77
2022/01/10 10:28:37;;;;;;;50.28;18.83;;;;;;;0.69;100.00;101931.63;5000238;28;20034;-78
2022/01/10 10:31:03;;;;;;;44.28;18.17;;;;;;;0.69;100.00;101932.44;5019763;28;20053;-78
2022/01/10 10:33:29;;;;;;;53.50;19.02;;;;;;;0.66;100.00;101937.69;5015548;28;20393;-79
2022/01/10 10:36:07;;;;;;;55.85;19.70;;;;;;;0.86;100.00;101936.84;4999464;28;20033;-78
2022/01/10 10:38:33;;;;;;;48.40;17.50;;;;;;;0.89;100.00;101923.13;5014840;28;20117;-77
2022/01/10 10:41:04;;;;;;;42.20;18.05;;;;;;;1.01;100.00;101929.41;5003247;28;20060;-78
2022/01/10 10:43:35;;;;;;;59.17;17.88;;;;;;;1.13;100.00;101932.28;5002743;28;20091;-78
2022/01/10 10:46:10;;;;;;;46.60;19.38;;;;;;;1.24;100.00;101930.97;5015178;28;20484;-78
2022/01/10 10:48:38;;;;;;;47.08;17.98;;;;;;;1.22;100.00;101933.59;5015824;28;20165;-79
2022/01/10 10:51:04;;;;;;;42.25;17.85;;;;;;;1.19;100.00;101938.84;4995050;28;20033;-79
2022/01/10 10:53:30;;;;;;;53.60;18.45;;;;;;;1.14;100.00;101953.53;5015153;28;20079;-79
2022/01/10 10:56:01;;;;;;;44.63;17.20;;;;;;;1.42;100.00;101948.03;5011968;28;20049;-79
2022/01/10 10:58:27;;;;;;;40.05;17.17;;;;;;;1.57;99.45;101950.81;5011951;28;20064;-79
2022/01/10 11:00:56;;;;;;;43.88;16.00;;;;;;;1.58;98.52;101952.47;5007507;28;20480;-79
2022/01/10 11:03:23;;;;;;;40.63;16.08;;;;;;;1.45;98.28;101963.25;4978317;28;20034;-79
2022/01/10 11:05:50;;;;;;;37.92;15.30;;;;;;;1.60;98.51;101964.28;4997571;28;20416;-79
2022/01/10 11:08:17;;;;;;;36.88;16.23;;;;;;;1.53;98.37;101965.47;4996852;28;20030;-79
2022/01/10 11:10:43;;;;;;;47.38;16.48;;;;;;;1.53;98.13;101966.28;5008003;28;20107;-78